Time;durP1;ratioP1;P1;durP2;ratioP2;P2;SDS_P1;SDS_P2;PMS_P1;PMS_P2;Temp;Humidity;BMP_temperature;BMP_pressure;BME280_temperature;BME280_humidity;BME280_pressure;Samples;Min_cycle;Max_cycle;Signal;HPM_P1;HPM_P2
2021/04/21 00:01:00;;;;;;;27.33;15.00;;;11.70;62.00;;;;;;5074099;28;20092;-74
2021/04/21 00:03:26;;;;;;;27.35;14.60;;;11.60;62.30;;;;;;5067049;28;20136;-74
2021/04/21 00:05:53;;;;;;;24.75;15.70;;;11.60;62.60;;;;;;5058081;28;20075;-74
2021/04/21 00:08:20;;;;;;;27.33;15.98;;;11.50;63.10;;;;;;5065832;28;20049;-74
2021/04/21 00:10:48;;;;;;;28.85;16.90;;;11.40;63.60;;;;;;5070242;28;21650;-74
2021/04/21 00:13:16;;;;;;;31.30;15.82;;;11.30;64.00;;;;;;5067442;28;20079;-74
2021/04/21 00:15:43;;;;;;;27.33;15.40;;;11.40;63.90;;;;;;5064141;28;20060;-74
2021/04/21 00:18:11;;;;;;;26.77;15.50;;;11.30;63.90;;;;;;5057949;28;20044;-74
2021/04/21 00:20:37;;;;;;;27.77;16.13;;;11.30;63.80;;;;;;5071678;28;20106;-74
2021/04/21 00:23:09;;;;;;;31.08;16.30;;;11.30;64.40;;;;;;5069831;28;20526;-74
2021/04/21 00:25:37;;;;;;;29.83;16.42;;;11.20;65.00;;;;;;5066144;28;20379;-74
2021/04/21 00:28:05;;;;;;;29.20;16.67;;;11.10;66.00;;;;;;5070696;28;20049;-74
2021/04/21 00:30:33;;;;;;;30.08;16.52;;;11.20;66.10;;;;;;5066676;28;20048;-75
2021/04/21 00:33:01;;;;;;;27.27;14.95;;;11.20;65.80;;;;;;5074294;28;20106;-74
2021/04/21 00:35:36;;;;;;;27.73;16.17;;;11.20;66.00;;;;;;5069405;28;20531;-74
2021/04/21 00:38:08;;;;;;;26.02;15.50;;;11.30;65.70;;;;;;5062875;28;20044;-74
2021/04/21 00:40:44;;;;;;;30.38;16.38;;;11.30;65.90;;;;;;5073066;28;20079;-74
2021/04/21 00:43:25;;;;;;;30.90;15.63;;;11.20;65.90;;;;;;5068723;28;20102;-74
2021/04/21 00:46:15;;;;;;;26.35;15.95;;;11.30;66.10;;;;;;5063280;28;20472;-74
2021/04/21 00:49:12;;;;;;;27.70;16.42;;;11.40;65.70;;;;;;5070653;28;20471;-74
2021/04/21 00:51:49;;;;;;;26.58;15.73;;;11.30;66.10;;;;;;5069434;28;20040;-74
2021/04/21 00:54:56;;;;;;;27.73;16.08;;;11.20;66.70;;;;;;5064623;28;20101;-74
2021/04/21 00:57:33;;;;;;;25.23;15.50;;;10.80;68.00;;;;;;5058899;28;20461;-74
2021/04/21 01:00:14;;;;;;;25.13;15.43;;;10.70;68.30;;;;;;5066102;28;20491;-74
2021/04/21 01:02:54;;;;;;;30.02;15.90;;;10.70;68.40;;;;;;5063239;28;20127;-73
2021/04/21 01:05:31;;;;;;;28.75;16.85;;;10.80;68.30;;;;;;5067989;28;20621;-74
2021/04/21 01:08:01;;;;;;;26.85;15.25;;;11.00;68.10;;;;;;5064602;28;20096;-75
2021/04/21 01:10:33;;;;;;;31.63;16.23;;;10.90;67.80;;;;;;5069985;28;20098;-74
2021/04/21 01:13:00;;;;;;;27.80;15.75;;;10.80;68.10;;;;;;5064214;28;20399;-72
2021/04/21 01:15:28;;;;;;;30.38;16.08;;;11.10;67.40;;;;;;5071563;28;20094;-74
2021/04/21 01:17:56;;;;;;;35.40;16.45;;;11.00;67.80;;;;;;5068564;28;20045;-74
2021/04/21 01:20:30;;;;;;;27.77;16.33;;;10.80;68.20;;;;;;5073331;28;20044;-74
2021/04/21 01:23:20;;;;;;;28.02;16.30;;;10.70;69.00;;;;;;5070452;28;20050;-73
2021/04/21 01:26:25;;;;;;;34.20;17.10;;;10.70;68.90;;;;;;5089337;28;20045;-74
2021/04/21 01:28:54;;;;;;;28.80;16.20;;;10.70;69.10;;;;;;5018593;28;20044;-74
2021/04/21 01:31:23;;;;;;;28.85;15.82;;;10.60;69.00;;;;;;5069744;28;20118;-73
2021/04/21 01:33:52;;;;;;;30.42;15.35;;;10.60;69.60;;;;;;5073022;28;20102;-73
2021/04/21 01:36:22;;;;;;;29.98;14.70;;;10.70;69.50;;;;;;5071354;28;20056;-73
2021/04/21 01:38:51;;;;;;;31.50;16.42;;;10.90;68.40;;;;;;5071778;28;20105;-74
2021/04/21 01:41:25;;;;;;;25.20;15.10;;;10.70;68.30;;;;;;5063071;28;20076;-74
2021/04/21 01:44:03;;;;;;;26.35;15.10;;;10.50;68.60;;;;;;5071979;28;20113;-74
2021/04/21 01:46:36;;;;;;;25.30;13.95;;;10.20;68.70;;;;;;5072941;28;20128;-74
2021/04/21 01:49:36;;;;;;;30.05;14.35;;;10.30;68.10;;;;;;5071209;28;20395;-74
2021/04/21 01:52:37;;;;;;;28.38;14.68;;;10.40;67.60;;;;;;5068462;28;20081;-74
2021/04/21 01:55:35;;;;;;;26.35;14.60;;;10.40;67.10;;;;;;5070590;28;20495;-74
2021/04/21 01:58:22;;;;;;;25.92;14.70;;;10.70;66.90;;;;;;5065669;28;20049;-74
2021/04/21 02:00:52;;;;;;;28.23;14.10;;;10.70;66.80;;;;;;5069733;28;20118;-73
2021/04/21 02:03:36;;;;;;;24.88;14.90;;;10.40;67.70;;;;;;5073004;28;20044;-74
2021/04/21 02:06:27;;;;;;;24.98;13.35;;;10.50;68.30;;;;;;5068373;28;20540;-74
2021/04/21 02:09:12;;;;;;;26.60;14.32;;;10.40;68.00;;;;;;5071228;28;20080;-74
2021/04/21 02:11:46;;;;;;;27.27;14.15;;;10.50;67.80;;;;;;5070034;28;20467;-74
2021/04/21 02:14:35;;;;;;;28.05;14.73;;;10.40;67.90;;;;;;5065784;28;20079;-74
2021/04/21 02:17:35;;;;;;;24.60;13.77;;;10.30;68.50;;;;;;5064622;28;20048;-74
2021/04/21 02:20:06;;;;;;;;;;;10.30;68.60;;;;;;5064752;28;20494;-74
2021/04/21 02:23:04;;;;;;;25.67;13.55;;;10.30;68.40;;;;;;5072382;28;19920;-74
2021/04/21 02:25:42;;;;;;;27.20;13.93;;;10.30;68.80;;;;;;5048009;28;20095;-74
2021/04/21 02:28:24;;;;;;;28.75;14.52;;;10.30;68.30;;;;;;5071267;28;20098;-74
2021/04/21 02:31:08;;;;;;;27.27;15.23;;;10.20;68.30;;;;;;5069183;28;20083;-74
2021/04/21 02:34:00;;;;;;;27.42;15.35;;;10.10;68.80;;;;;;5072819;28;20048;-74
2021/04/21 02:37:12;;;;;;;27.17;15.05;;;10.10;69.50;;;;;;5071326;28;20128;-74
2021/04/21 02:39:53;;;;;;;26.45;14.18;;;10.00;69.30;;;;;;5048323;28;20056;-74
2021/04/21 02:42:25;;;;;;;;;;;10.10;69.70;;;;;;5070362;28;20075;-74
2021/04/21 02:45:10;;;;;;;25.67;13.73;;;10.10;69.60;;;;;;5069759;28;19983;-74
2021/04/21 02:48:33;;;;;;;28.63;14.23;;;10.10;69.90;;;;;;5070409;28;20094;-74
2021/04/21 02:51:12;;;;;;;27.45;14.07;;;10.10;69.80;;;;;;5022585;28;20123;-74
2021/04/21 02:53:56;;;;;;;28.30;15.18;;;10.00;69.80;;;;;;5013358;28;20049;-74
2021/04/21 02:56:37;;;;;;;32.25;14.40;;;10.10;69.90;;;;;;5053337;28;20133;-74
2021/04/21 02:59:32;;;;;;;29.27;15.57;;;10.30;69.30;;;;;;5065200;28;20040;-74
2021/04/21 03:02:09;;;;;;;29.13;15.45;;;10.20;69.50;;;;;;5057742;28;20127;-74
2021/04/21 03:04:49;;;;;;;27.92;15.43;;;10.20;69.90;;;;;;5070799;28;20049;-74
2021/04/21 03:07:22;;;;;;;26.33;14.82;;;10.10;69.80;;;;;;5070834;28;20053;-74
2021/04/21 03:09:53;;;;;;;30.13;16.73;;;10.10;70.10;;;;;;5069179;28;20446;-74
2021/04/21 03:12:27;;;;;;;26.35;14.95;;;10.00;70.10;;;;;;5070534;28;20170;-74
2021/04/21 03:15:10;;;;;;;29.73;15.15;;;9.90;71.60;;;;;;5068415;28;20056;-74
2021/04/21 03:17:41;;;;;;;21.05;14.05;;;9.90;72.30;;;;;;5068490;28;20389;-74
2021/04/21 03:20:16;;;;;;;23.77;14.45;;;9.80;71.70;;;;;;5072690;28;20094;-74
2021/04/21 03:22:52;;;;;;;25.95;14.63;;;9.80;72.10;;;;;;5068265;28;20048;-73
2021/04/21 03:25:35;;;;;;;29.20;15.13;;;9.80;72.10;;;;;;5069211;28;20056;-74
2021/04/21 03:28:06;;;;;;;28.10;14.70;;;9.80;72.20;;;;;;5059597;28;20118;-72
2021/04/21 03:30:34;;;;;;;34.10;13.88;;;9.70;72.80;;;;;;5068131;28;20048;-74
2021/04/21 03:33:14;;;;;;;31.42;16.67;;;9.50;73.20;;;;;;5070791;28;20048;-73
2021/04/21 03:35:45;;;;;;;25.63;14.25;;;9.60;73.90;;;;;;5065452;28;20083;-73
2021/04/21 03:38:14;;;;;;;26.52;13.90;;;9.50;73.80;;;;;;5072649;28;20080;-73
2021/04/21 03:40:40;;;;;;;23.60;14.45;;;9.40;74.30;;;;;;5067669;28;20618;-72
2021/04/21 03:43:09;;;;;;;27.52;14.50;;;9.30;74.40;;;;;;5068085;28;20111;-73
2021/04/21 03:45:36;;;;;;;25.55;13.90;;;9.20;75.10;;;;;;5068897;28;20173;-73
2021/04/21 03:48:03;;;;;;;26.30;13.68;;;9.40;75.20;;;;;;5069564;28;20049;-72
2021/04/21 03:50:30;;;;;;;26.95;14.50;;;9.40;74.80;;;;;;5067960;28;20528;-71
2021/04/21 03:53:08;;;;;;;26.92;14.43;;;9.40;74.40;;;;;;5071788;28;20044;-72
2021/04/21 03:55:36;;;;;;;24.02;13.43;;;9.40;75.10;;;;;;5070751;28;20086;-73
2021/04/21 03:58:11;;;;;;;27.38;14.75;;;9.40;74.90;;;;;;5066419;28;20056;-72
2021/04/21 04:00:40;;;;;;;27.00;13.63;;;9.30;75.00;;;;;;5065951;28;20114;-72
2021/04/21 04:03:10;;;;;;;23.42;13.27;;;9.30;74.90;;;;;;5072295;28;20056;-73
2021/04/21 04:05:45;;;;;;;22.10;12.75;;;9.40;75.00;;;;;;5067513;28;20056;-72
2021/04/21 04:08:15;;;;;;;23.48;13.18;;;9.40;74.70;;;;;;5068875;28;20079;-72
2021/04/21 04:10:49;;;;;;;24.02;13.30;;;9.40;74.80;;;;;;5071657;28;20133;-74
2021/04/21 04:13:18;;;;;;;25.45;13.32;;;9.40;74.70;;;;;;5068418;28;20075;-72
2021/04/21 04:15:48;;;;;;;25.63;13.10;;;9.40;74.70;;;;;;5069430;28;20076;-72
2021/04/21 04:18:15;;;;;;;23.45;12.77;;;9.20;75.20;;;;;;5070118;28;20076;-73
2021/04/21 04:20:43;;;;;;;24.85;13.45;;;9.10;75.90;;;;;;5069237;28;20384;-73
2021/04/21 04:23:12;;;;;;;26.90;13.60;;;9.10;76.00;;;;;;5068925;28;20097;-73
2021/04/21 04:25:46;;;;;;;22.17;13.38;;;9.10;76.10;;;;;;5056156;28;20442;-73
2021/04/21 04:28:13;;;;;;;25.20;13.57;;;9.10;76.10;;;;;;5062596;28;20078;-73
2021/04/21 04:30:40;;;;;;;27.23;13.95;;;9.20;76.20;;;;;;5066769;28;20045;-73
2021/04/21 04:33:08;;;;;;;24.98;14.32;;;9.20;75.70;;;;;;5071128;28;20052;-73
2021/04/21 04:35:36;;;;;;;25.15;13.95;;;9.20;76.00;;;;;;5067371;28;20091;-73
2021/04/21 04:38:03;;;;;;;23.40;14.00;;;9.30;75.90;;;;;;5072348;28;20095;-73
2021/04/21 04:40:31;;;;;;;24.75;13.55;;;9.40;76.10;;;;;;5065413;28;20651;-73
2021/04/21 04:42:59;;;;;;;24.25;13.50;;;9.60;74.80;;;;;;5075252;28;20137;-73
2021/04/21 04:45:28;;;;;;;23.08;13.95;;;9.70;73.70;;;;;;5071550;28;20137;-73
2021/04/21 04:48:01;;;;;;;28.85;14.20;;;9.80;73.00;;;;;;5072654;28;20094;-73
2021/04/21 04:50:29;;;;;;;25.27;13.77;;;9.50;73.80;;;;;;5074599;28;20079;-73
2021/04/21 04:52:57;;;;;;;28.40;15.13;;;9.40;74.70;;;;;;5085920;28;20049;-73
2021/04/21 04:55:27;;;;;;;30.25;15.02;;;9.30;75.00;;;;;;5068703;28;20056;-74
2021/04/21 04:57:55;;;;;;;27.35;14.55;;;9.30;75.40;;;;;;5073134;28;20545;-74
2021/04/21 05:00:25;;;;;;;25.02;14.40;;;9.40;76.10;;;;;;5067045;28;20072;-74
2021/04/21 05:03:10;;;;;;;24.27;14.30;;;9.40;76.00;;;;;;5070181;28;20052;-74
2021/04/21 05:05:37;;;;;;;26.98;14.52;;;9.40;75.40;;;;;;5073870;28;20148;-74
2021/04/21 05:08:07;;;;;;;24.85;14.38;;;9.40;75.40;;;;;;5074026;28;20049;-73
2021/04/21 05:11:00;;;;;;;26.63;15.37;;;9.40;75.70;;;;;;5068776;28;20098;-74
2021/04/21 05:13:38;;;;;;;28.30;14.13;;;9.30;75.60;;;;;;5046053;28;20056;-73
2021/04/21 05:16:10;;;;;;;34.85;14.40;;;9.40;76.20;;;;;;5071117;28;20076;-74
2021/04/21 05:18:45;;;;;;;29.08;14.88;;;9.60;75.70;;;;;;5070996;28;20036;-73
2021/04/21 05:21:15;;;;;;;26.70;13.98;;;9.60;75.40;;;;;;5073798;28;20541;-73
2021/04/21 05:24:04;;;;;;;29.40;14.75;;;9.70;75.20;;;;;;5083301;28;20040;-73
2021/04/21 05:26:55;;;;;;;25.45;14.60;;;9.70;74.70;;;;;;5072704;28;20071;-73
2021/04/21 05:29:58;;;;;;;26.52;13.77;;;9.60;75.60;;;;;;5068522;28;20079;-73
2021/04/21 05:32:58;;;;;;;23.58;13.10;;;9.60;76.30;;;;;;5065592;28;20053;-73
2021/04/21 05:36:03;;;;;;;26.60;14.05;;;9.70;76.70;;;;;;5065792;28;20434;-73
2021/04/21 05:39:06;;;;;;;22.98;11.95;;;10.00;75.50;;;;;;5068495;28;20132;-73
2021/04/21 05:42:10;;;;;;;23.05;12.95;;;10.00;75.40;;;;;;5064454;28;20577;-73
2021/04/21 05:44:55;;;;;;;23.35;12.23;;;10.00;75.70;;;;;;5064413;28;20468;-73
2021/04/21 05:47:39;;;;;;;24.40;13.52;;;10.40;74.50;;;;;;5081735;28;20049;-74
2021/04/21 05:50:27;;;;;;;22.17;12.38;;;10.70;72.60;;;;;;5072617;28;20095;-73
2021/04/21 05:53:21;;;;;;;28.63;13.52;;;10.80;72.00;;;;;;5072809;28;20048;-74
2021/04/21 05:56:22;;;;;;;26.40;12.98;;;10.90;71.50;;;;;;5069282;28;20055;-73
2021/04/21 05:58:57;;;;;;;23.83;12.70;;;11.80;69.40;;;;;;5080567;28;20048;-74
2021/04/21 06:01:30;;;;;;;22.80;12.98;;;12.30;66.40;;;;;;5064336;28;20048;-74
2021/04/21 06:03:58;;;;;;;24.48;11.75;;;12.90;63.10;;;;;;5070596;28;20060;-73
2021/04/21 06:06:26;;;;;;;23.63;12.63;;;12.60;63.80;;;;;;5073091;28;20105;-73
2021/04/21 06:08:53;;;;;;;25.25;12.50;;;13.20;61.70;;;;;;5068858;28;20516;-73
2021/04/21 06:11:22;;;;;;;23.13;12.93;;;12.90;60.90;;;;;;5071489;28;20405;-73
2021/04/21 06:13:57;;;;;;;22.80;13.45;;;12.60;61.90;;;;;;5070455;28;20102;-73
2021/04/21 06:16:25;;;;;;;25.27;13.07;;;12.40;62.70;;;;;;5070500;28;20048;-72
2021/04/21 06:18:59;;;;;;;22.38;13.23;;;12.00;64.00;;;;;;5072484;28;20762;-73
2021/04/21 06:21:29;;;;;;;25.27;14.00;;;12.10;63.70;;;;;;5071727;28;20444;-72
2021/04/21 06:23:57;;;;;;;23.20;13.35;;;12.10;64.10;;;;;;5069009;28;20048;-72
2021/04/21 06:26:25;;;;;;;23.42;13.13;;;12.40;63.80;;;;;;5072759;28;20048;-72
2021/04/21 06:28:58;;;;;;;21.77;13.43;;;13.00;62.20;;;;;;5069361;28;20080;-72
2021/04/21 06:31:35;;;;;;;25.67;14.32;;;12.60;62.00;;;;;;5070399;28;20048;-72
2021/04/21 06:34:04;;;;;;;22.73;13.30;;;12.70;62.80;;;;;;5053925;28;20048;-71
2021/04/21 06:36:38;;;;;;;22.00;13.77;;;12.90;61.60;;;;;;5063736;28;20052;-71
2021/04/21 06:39:06;;;;;;;24.15;14.18;;;13.00;61.40;;;;;;5064667;28;20052;-72
2021/04/21 06:41:33;;;;;;;26.50;14.90;;;12.60;62.10;;;;;;5072464;28;20083;-72
2021/04/21 06:43:59;;;;;;;27.63;14.70;;;12.40;62.90;;;;;;5074447;28;20114;-72
2021/04/21 06:46:26;;;;;;;25.77;13.93;;;12.40;63.30;;;;;;5063583;28;20080;-72
2021/04/21 06:48:58;;;;;;;21.73;12.95;;;13.10;62.70;;;;;;5072107;28;20044;-72
2021/04/21 06:51:29;;;;;;;26.20;14.10;;;13.80;59.80;;;;;;5068027;28;20072;-72
2021/04/21 06:53:57;;;;;;;23.55;14.10;;;13.70;60.60;;;;;;5068545;28;20053;-72
2021/04/21 06:56:31;;;;;;;21.33;13.10;;;13.60;59.90;;;;;;5058616;28;20498;-72
2021/04/21 06:58:59;;;;;;;25.08;13.50;;;13.60;60.00;;;;;;5060651;28;20391;-70
2021/04/21 07:01:30;;;;;;;21.10;12.93;;;13.30;60.10;;;;;;5067120;28;20060;-72
2021/04/21 07:04:09;;;;;;;25.40;13.00;;;14.40;59.00;;;;;;5076430;28;20072;-69
2021/04/21 07:06:36;;;;;;;25.73;14.15;;;14.70;57.30;;;;;;5073683;28;20045;-68
2021/04/21 07:09:21;;;;;;;24.23;13.27;;;14.30;58.00;;;;;;5071831;28;20040;-68
2021/04/21 07:11:59;;;;;;;23.50;13.70;;;14.30;57.80;;;;;;5059066;28;20052;-71
2021/04/21 07:14:29;;;;;;;23.83;13.75;;;13.90;58.40;;;;;;5055960;28;20078;-71
2021/04/21 07:16:57;;;;;;;25.00;13.43;;;14.20;58.30;;;;;;5049620;28;20075;-71
2021/04/21 07:19:26;;;;;;;25.05;12.70;;;14.80;57.50;;;;;;5050579;28;20488;-70
2021/04/21 07:21:54;;;;;;;21.30;12.45;;;14.60;57.00;;;;;;5051936;28;20667;-71
2021/04/21 07:24:31;;;;;;;20.15;12.68;;;14.30;57.80;;;;;;5067268;28;20052;-70
2021/04/21 07:26:59;;;;;;;21.00;12.73;;;15.10;57.00;;;;;;5053487;28;20079;-71
2021/04/21 07:29:26;;;;;;;25.42;12.98;;;15.20;56.30;;;;;;5051009;28;20048;-70
2021/04/21 07:31:53;;;;;;;22.42;13.55;;;15.30;55.40;;;;;;5050884;28;20059;-70
2021/04/21 07:34:32;;;;;;;22.35;13.07;;;15.60;55.70;;;;;;5049774;28;20060;-69
2021/04/21 07:36:59;;;;;;;29.30;14.70;;;15.40;55.60;;;;;;5050150;28;20102;-70
2021/04/21 07:39:41;;;;;;;25.65;14.52;;;15.20;56.00;;;;;;5050258;28;20053;-70
2021/04/21 07:42:18;;;;;;;27.20;14.07;;;14.80;56.80;;;;;;5051277;28;20131;-73
2021/04/21 07:44:54;;;;;;;22.00;13.35;;;15.00;57.20;;;;;;5051526;28;20048;-71
2021/04/21 07:47:23;;;;;;;23.13;13.32;;;15.40;57.00;;;;;;5050293;28;20076;-71
2021/04/21 07:49:58;;;;;;;25.75;13.27;;;15.90;55.30;;;;;;5050244;28;20057;-72
2021/04/21 07:52:30;;;;;;;20.25;13.43;;;15.70;55.50;;;;;;5054372;28;21278;-71
2021/04/21 07:55:12;;;;;;;22.30;12.95;;;16.00;55.00;;;;;;5052882;28;20878;-71
2021/04/21 07:57:46;;;;;;;21.85;13.75;;;16.10;54.80;;;;;;5055570;28;20094;-74
2021/04/21 08:00:27;;;;;;;23.13;14.07;;;15.70;55.60;;;;;;5049528;28;20052;-74
2021/04/21 08:02:54;;;;;;;24.45;12.85;;;17.00;54.20;;;;;;5053341;28;20097;-74
2021/04/21 08:05:20;;;;;;;23.45;13.27;;;17.80;52.20;;;;;;5050131;28;20053;-73
2021/04/21 08:07:53;;;;;;;28.40;14.27;;;17.50;51.90;;;;;;5053498;28;20045;-73
2021/04/21 08:10:23;;;;;;;25.75;13.77;;;16.40;53.40;;;;;;5049047;28;20194;-74
2021/04/21 08:12:51;;;;;;;24.75;14.13;;;15.70;55.30;;;;;;5049381;28;20131;-74
2021/04/21 08:15:18;;;;;;;27.02;13.02;;;16.10;55.00;;;;;;5049615;28;20064;-74
2021/04/21 08:18:13;;;;;;;23.90;13.90;;;17.30;53.20;;;;;;5049245;28;21589;-73
2021/04/21 08:20:39;;;;;;;27.35;14.90;;;17.00;52.70;;;;;;5050778;28;20053;-74
2021/04/21 08:23:26;;;;;;;28.98;15.10;;;16.50;53.60;;;;;;5049194;28;20503;-71
2021/04/21 08:25:53;;;;;;;22.73;14.05;;;16.40;54.10;;;;;;5050196;28;20104;-74
2021/04/21 08:28:23;;;;;;;25.00;14.90;;;16.30;54.40;;;;;;5049189;28;20044;-73
2021/04/21 08:30:58;;;;;;;25.02;14.68;;;16.70;53.80;;;;;;5050559;28;20543;-73
2021/04/21 08:33:30;;;;;;;30.42;13.68;;;17.10;53.00;;;;;;5050605;28;20045;-73
2021/04/21 08:35:56;;;;;;;29.45;14.48;;;17.50;52.40;;;;;;5050344;28;20056;-74
2021/04/21 08:38:23;;;;;;;24.67;14.93;;;18.40;51.10;;;;;;5050521;28;20056;-73
2021/04/21 08:40:49;;;;;;;27.52;14.35;;;18.80;49.90;;;;;;5049796;28;20131;-73
2021/04/21 08:43:19;;;;;;;28.50;14.38;;;19.10;49.40;;;;;;5049377;28;20044;-75
2021/04/21 08:45:46;;;;;;;25.85;13.15;;;19.30;48.90;;;;;;5049925;28;20067;-73
2021/04/21 08:48:13;;;;;;;24.10;13.32;;;20.40;47.50;;;;;;5049982;28;20684;-74
2021/04/21 08:50:40;;;;;;;20.00;11.93;;;18.40;48.30;;;;;;5049701;28;20050;-74
2021/04/21 08:53:08;;;;;;;22.75;12.30;;;18.40;49.90;;;;;;5049075;28;20056;-75
2021/04/21 08:55:38;;;;;;;20.40;12.48;;;18.30;50.00;;;;;;5050180;28;20041;-73
2021/04/21 08:58:07;;;;;;;18.67;11.82;;;18.60;49.80;;;;;;5049578;28;20150;-74
2021/04/21 09:00:34;;;;;;;24.08;12.80;;;18.60;49.80;;;;;;5051340;28;20107;-75
2021/04/21 09:03:01;;;;;;;30.40;15.77;;;18.50;49.70;;;;;;5045955;28;20146;-73
2021/04/21 09:05:28;;;;;;;22.95;12.95;;;19.20;49.10;;;;;;5048442;28;20385;-74
2021/04/21 09:07:55;;;;;;;18.02;10.05;;;19.80;47.00;;;;;;5049020;28;20044;-73
2021/04/21 09:10:21;;;;;;;21.77;11.95;;;20.20;46.20;;;;;;5052080;28;20133;-73
2021/04/21 09:12:48;;;;;;;24.25;10.90;;;20.60;45.90;;;;;;5047204;28;20122;-73
2021/04/21 09:15:16;;;;;;;20.80;10.55;;;23.00;43.20;;;;;;5046935;28;20644;-74
2021/04/21 09:17:51;;;;;;;20.40;11.15;;;22.90;41.10;;;;;;5047212;28;20119;-73
2021/04/21 09:20:20;;;;;;;21.10;11.27;;;21.20;42.70;;;;;;5049818;28;20137;-74
2021/04/21 09:23:05;;;;;;;19.63;10.95;;;19.60;45.60;;;;;;5048824;28;20390;-73
2021/04/21 09:25:35;;;;;;;19.10;10.88;;;20.30;45.80;;;;;;5054867;28;20135;-73
2021/04/21 09:28:02;;;;;;;16.40;9.13;;;22.60;41.80;;;;;;5051994;28;20114;-73
2021/04/21 09:30:29;;;;;;;18.83;9.90;;;22.20;40.40;;;;;;5052064;28;20048;-72
2021/04/21 09:32:57;;;;;;;16.20;8.60;;;21.90;40.40;;;;;;5051633;28;20041;-74
2021/04/21 09:35:27;;;;;;;13.15;7.95;;;20.80;41.20;;;;;;5053591;28;20048;-74
2021/04/21 09:38:16;;;;;;;16.50;8.13;;;20.10;41.60;;;;;;5068289;28;20052;-74
2021/04/21 09:40:49;;;;;;;21.83;9.57;;;21.00;41.50;;;;;;5050290;28;20076;-73
2021/04/21 09:43:23;;;;;;;15.77;8.77;;;20.50;41.80;;;;;;5052586;28;20056;-74
2021/04/21 09:45:55;;;;;;;17.85;10.18;;;20.80;41.40;;;;;;5051210;28;20419;-74
2021/04/21 09:48:27;;;;;;;12.98;8.40;;;20.60;41.60;;;;;;5053193;28;20076;-74
2021/04/21 09:51:03;;;;;;;14.07;9.23;;;21.10;42.10;;;;;;5054109;28;20083;-73
2021/04/21 09:53:36;;;;;;;19.40;9.55;;;20.30;42.30;;;;;;5051163;28;20060;-74
2021/04/21 09:56:24;;;;;;;20.27;10.70;;;21.00;42.70;;;;;;5051767;28;20049;-73
2021/04/21 09:58:58;;;;;;;16.10;9.43;;;19.60;43.70;;;;;;5051329;28;20448;-74
2021/04/21 10:01:38;;;;;;;18.05;9.55;;;19.30;44.70;;;;;;5050427;28;20048;-75
2021/04/21 10:04:21;;;;;;;18.30;9.20;;;19.50;43.60;;;;;;5055542;28;20364;-74
2021/04/21 10:06:49;;;;;;;18.08;10.77;;;19.30;43.70;;;;;;5049405;28;20052;-74
2021/04/21 10:09:25;;;;;;;15.43;9.15;;;19.80;43.90;;;;;;5053084;28;20049;-70
2021/04/21 10:11:52;;;;;;;18.52;9.57;;;20.50;42.50;;;;;;5048609;28;20044;-71
2021/04/21 10:14:23;;;;;;;16.10;9.13;;;20.30;43.10;;;;;;5053419;28;20140;-73
2021/04/21 10:16:51;;;;;;;15.55;9.32;;;21.30;41.80;;;;;;5059136;28;20556;-72
2021/04/21 10:19:19;;;;;;;16.42;8.77;;;21.80;41.30;;;;;;5063654;28;20067;-72
2021/04/21 10:21:46;;;;;;;17.35;8.65;;;22.60;40.30;;;;;;5062866;28;20106;-71
2021/04/21 10:24:12;;;;;;;17.08;10.20;;;22.80;39.80;;;;;;5060969;28;20044;-72
2021/04/21 10:26:41;;;;;;;16.23;8.80;;;22.90;39.20;;;;;;5065104;28;20127;-73
2021/04/21 10:29:07;;;;;;;18.35;8.65;;;22.70;39.10;;;;;;5061910;28;20189;-72
2021/04/21 10:31:35;;;;;;;16.15;10.50;;;24.00;38.30;;;;;;5064176;28;20049;-72
2021/04/21 10:34:06;;;;;;;14.32;8.88;;;22.60;37.90;;;;;;5061999;28;20044;-72
2021/04/21 10:36:32;;;;;;;23.45;9.65;;;21.60;40.10;;;;;;5062059;28;20136;-72
2021/04/21 10:38:59;;;;;;;17.05;8.73;;;22.90;38.60;;;;;;5064041;28;20145;-72
2021/04/21 10:41:25;;;;;;;21.25;8.52;;;22.60;37.80;;;;;;5059416;28;20139;-71
2021/04/21 10:44:12;;;;;;;14.65;8.40;;;22.00;39.00;;;;;;5063319;28;20060;-74
2021/04/21 10:46:58;;;;;;;15.80;7.75;;;24.10;35.20;;;;;;5060549;28;20048;-74
2021/04/21 10:49:50;;;;;;;15.80;8.30;;;25.30;34.00;;;;;;5061346;28;20110;-73
2021/04/21 10:52:22;;;;;;;20.58;8.43;;;24.20;34.40;;;;;;5061434;28;20076;-73
2021/04/21 10:54:51;;;;;;;16.50;9.07;;;25.90;35.50;;;;;;5060983;28;20076;-72
2021/04/21 10:57:26;;;;;;;18.23;9.20;;;27.70;32.80;;;;;;5060980;28;20572;-75
2021/04/21 11:00:10;;;;;;;15.27;8.82;;;27.60;32.20;;;;;;5061400;28;20068;-73
2021/04/21 11:02:45;;;;;;;14.98;9.07;;;25.00;33.80;;;;;;5079866;28;20076;-71
2021/04/21 11:05:20;;;;;;;16.20;9.63;;;23.30;36.80;;;;;;5061771;28;20049;-71
2021/04/21 11:08:14;;;;;;;19.73;9.93;;;22.40;37.10;;;;;;5062464;28;20148;-73
2021/04/21 11:10:47;;;;;;;16.38;9.88;;;22.20;38.30;;;;;;5063159;28;20044;-71
2021/04/21 11:13:16;;;;;;;13.52;8.15;;;22.00;38.70;;;;;;5062241;28;20059;-71
2021/04/21 11:15:49;;;;;;;14.23;9.07;;;22.50;38.10;;;;;;5062330;28;20048;-72
2021/04/21 11:18:24;;;;;;;12.25;7.85;;;22.30;38.30;;;;;;5058506;28;20746;-75
2021/04/21 11:20:56;;;;;;;15.77;7.88;;;21.90;37.30;;;;;;5062719;28;20432;-72
2021/04/21 11:24:01;;;;;;;14.30;7.82;;;22.10;37.50;;;;;;5061546;28;20048;-72
2021/04/21 11:26:28;;;;;;;10.80;6.00;;;22.10;36.70;;;;;;5064041;28;20051;-73
2021/04/21 11:29:15;;;;;;;11.15;6.65;;;22.60;35.00;;;;;;5061248;28;20488;-72
2021/04/21 11:31:42;;;;;;;12.07;6.57;;;23.40;33.90;;;;;;5060240;28;20098;-73
2021/04/21 11:34:32;;;;;;;9.13;6.25;;;23.90;33.20;;;;;;5062462;28;20064;-73
2021/04/21 11:37:08;;;;;;;14.18;7.68;;;22.80;34.00;;;;;;5063042;28;20072;-72
2021/04/21 11:40:00;;;;;;;11.38;6.72;;;23.50;34.30;;;;;;5076212;28;20076;-73
2021/04/21 11:42:43;;;;;;;13.57;8.32;;;23.50;34.20;;;;;;5061516;28;20072;-71
2021/04/21 11:45:30;;;;;;;12.75;8.52;;;23.50;35.30;;;;;;5057934;28;20130;-74
2021/04/21 11:48:00;;;;;;;15.27;8.70;;;23.50;35.20;;;;;;5074957;28;20052;-71
2021/04/21 11:50:32;;;;;;;16.85;8.60;;;23.50;35.50;;;;;;5061041;28;20094;-73
2021/04/21 11:52:59;;;;;;;13.88;8.02;;;24.30;35.40;;;;;;5060859;28;20590;-74
2021/04/21 11:55:45;;;;;;;11.60;7.55;;;23.90;35.40;;;;;;5058943;28;20048;-72
2021/04/21 11:58:21;;;;;;;11.02;7.05;;;25.90;33.00;;;;;;5058887;28;20498;-72
2021/04/21 12:00:54;;;;;;;11.70;6.82;;;25.80;32.10;;;;;;5061242;28;20052;-73
2021/04/21 12:03:27;;;;;;;10.20;7.03;;;25.50;32.60;;;;;;5063776;28;20048;-73
2021/04/21 12:06:02;;;;;;;10.82;6.95;;;25.20;32.00;;;;;;5059845;28;20045;-77
2021/04/21 12:08:31;;;;;;;11.75;7.03;;;25.10;33.10;;;;;;5062178;28;20044;-76
2021/04/21 12:10:59;;;;;;;11.95;7.70;;;23.50;33.70;;;;;;5061265;28;20398;-75
2021/04/21 12:13:34;;;;;;;11.82;6.85;;;22.20;35.40;;;;;;5058570;28;20105;-75
2021/04/21 12:16:17;;;;;;;11.15;7.60;;;21.40;36.50;;;;;;5058951;28;20102;-76
2021/04/21 12:18:55;;;;;;;9.85;6.43;;;20.60;36.70;;;;;;5055409;28;20165;-76
2021/04/21 12:21:36;;;;;;;12.15;6.78;;;20.70;36.60;;;;;;5059961;28;20480;-79
2021/04/21 12:24:04;;;;;;;10.10;6.22;;;21.40;36.20;;;;;;5056776;28;20083;-76
2021/04/21 12:26:31;;;;;;;8.52;5.85;;;21.70;35.80;;;;;;5059614;28;20062;-76
2021/04/21 12:29:08;;;;;;;10.57;6.35;;;23.10;34.20;;;;;;5060148;28;20114;-76
2021/04/21 12:31:36;;;;;;;8.77;5.18;;;23.60;33.00;;;;;;5059884;28;20557;-76
2021/04/21 12:34:04;;;;;;;11.07;6.15;;;24.00;32.50;;;;;;5061262;28;20117;-76
2021/04/21 12:36:36;;;;;;;7.88;5.38;;;22.80;32.60;;;;;;5058765;28;20113;-77
2021/04/21 12:39:06;;;;;;;8.52;4.18;;;22.50;31.70;;;;;;5058909;28;20535;-77
2021/04/21 12:41:41;;;;;;;7.72;4.72;;;21.60;31.30;;;;;;5057217;28;20147;-75
2021/04/21 12:44:22;;;;;;;8.10;5.43;;;21.40;33.10;;;;;;5075376;28;20060;-77
2021/04/21 12:46:51;;;;;;;8.05;5.30;;;21.00;34.10;;;;;;5058373;28;20049;-75
2021/04/21 12:49:37;;;;;;;11.40;5.88;;;21.00;33.80;;;;;;5058157;28;20048;-76
2021/04/21 12:52:17;;;;;;;11.25;6.40;;;21.40;35.00;;;;;;5058611;28;20055;-76
2021/04/21 12:54:45;;;;;;;9.23;4.88;;;21.70;34.10;;;;;;5060811;28;20098;-76
2021/04/21 12:57:13;;;;;;;7.70;5.50;;;21.80;33.10;;;;;;5059649;28;20068;-75
2021/04/21 12:59:47;;;;;;;13.55;6.55;;;22.00;33.50;;;;;;5062489;28;20088;-74
2021/04/21 13:02:16;;;;;;;11.00;6.88;;;22.70;33.40;;;;;;5064508;28;20493;-74
2021/04/21 13:04:47;;;;;;;12.20;7.90;;;24.30;32.60;;;;;;5063212;28;20498;-72
2021/04/21 13:07:16;;;;;;;12.25;7.65;;;24.30;31.50;;;;;;5062828;28;20559;-73
2021/04/21 13:09:43;;;;;;;11.88;7.85;;;25.80;30.70;;;;;;5064367;28;20052;-74
2021/04/21 13:12:11;;;;;;;13.20;8.70;;;24.40;30.30;;;;;;5063519;28;20048;-73